sensor_id;sensor_type;location;lat;lon;timestamp;pressure;altitude;pressure_sealevel;temperature;humidity
53671;BME280;39571;48.612;8.088;2023-05-02T06:50:16;100373.06;;;18.36;100.00
53671;BME280;39571;48.612;8.088;2023-05-02T06:52:41;100368.13;;;21.27;100.00
53671;BME280;39571;48.612;8.088;2023-05-02T06:55:07;100362.31;;;22.42;100.00
53671;BME280;39571;48.612;8.088;2023-05-02T06:57:32;100369.78;;;22.01;91.28
53671;BME280;39571;48.612;8.088;2023-05-02T06:59:58;100364.53;;;23.63;84.95
53671;BME280;39571;48.612;8.088;2023-05-02T07:02:23;100373.81;;;21.55;92.11
53671;BME280;39571;48.612;8.088;2023-05-02T07:04:48;100380.59;;;21.06;100.00
53671;BME280;39571;48.612;8.088;2023-05-02T07:07:13;100370.50;;;21.68;100.00
53671;BME280;39571;48.612;8.088;2023-05-02T07:09:42;100383.59;;;21.92;100.00
53671;BME280;39571;48.612;8.088;2023-05-02T07:12:08;100390.66;;;19.33;100.00
53671;BME280;39571;48.612;8.088;2023-05-02T07:58:28;100420.09;;;14.70;100.00
53671;BME280;39571;48.612;8.088;2023-05-02T08:00:53;100428.31;;;14.99;100.00
53671;BME280;39571;48.612;8.088;2023-05-02T08:03:18;100428.41;;;15.34;100.00
53671;BME280;39571;48.612;8.088;2023-05-02T08:05:44;100430.19;;;15.74;100.00
53671;BME280;39571;48.612;8.088;2023-05-02T08:08:09;100420.44;;;16.11;100.00
53671;BME280;39571;48.612;8.088;2023-05-02T08:10:35;100429.78;;;16.24;100.00
53671;BME280;39571;48.612;8.088;2023-05-02T08:13:00;100424.13;;;16.39;100.00
53671;BME280;39571;48.612;8.088;2023-05-02T08:15:25;100429.84;;;16.89;100.00
53671;BME280;39571;48.612;8.088;2023-05-02T08:17:50;100420.09;;;17.20;100.00
53671;BME280;39571;48.612;8.088;2023-05-02T08:20:16;100424.25;;;17.29;100.00
53671;BME280;39571;48.612;8.088;2023-05-02T08:22:41;100421.59;;;18.12;100.00
53671;BME280;39571;48.612;8.088;2023-05-02T08:25:07;100408.09;;;21.62;100.00
53671;BME280;39571;48.612;8.088;2023-05-02T08:27:32;100407.72;;;23.40;84.36
53671;BME280;39571;48.612;8.088;2023-05-02T08:29:59;100411.81;;;24.24;72.35
53671;BME280;39571;48.612;8.088;2023-05-02T08:32:24;100410.44;;;24.17;81.22
53671;BME280;39571;48.612;8.088;2023-05-02T08:34:54;100411.84;;;24.38;74.15
53671;BME280;39571;48.612;8.088;2023-05-02T08:37:20;100410.84;;;23.48;70.75
53671;BME280;39571;48.612;8.088;2023-05-02T08:39:45;100426.50;;;22.73;80.70
53671;BME280;39571;48.612;8.088;2023-05-02T08:42:11;100417.44;;;24.20;74.44
53671;BME280;39571;48.612;8.088;2023-05-02T08:44:36;100420.47;;;22.18;86.88
53671;BME280;39571;48.612;8.088;2023-05-02T08:47:02;100424.97;;;20.66;100.00
53671;BME280;39571;48.612;8.088;2023-05-02T08:49:30;100417.63;;;21.12;100.00
53671;BME280;39571;48.612;8.088;2023-05-02T08:51:58;100424.69;;;20.73;100.00
53671;BME280;39571;48.612;8.088;2023-05-02T08:54:24;100421.91;;;20.35;100.00
53671;BME280;39571;48.612;8.088;2023-05-02T08:56:52;100411.03;;;19.78;100.00
53671;BME280;39571;48.612;8.088;2023-05-02T08:59:18;100414.50;;;20.00;100.00
53671;BME280;39571;48.612;8.088;2023-05-02T09:01:44;100428.16;;;19.92;100.00
53671;BME280;39571;48.612;8.088;2023-05-02T09:04:13;100430.81;;;19.92;100.00
53671;BME280;39571;48.612;8.088;2023-05-02T09:06:39;100427.28;;;19.92;100.00
53671;BME280;39571;48.612;8.088;2023-05-02T09:09:05;100434.50;;;19.66;100.00
53671;BME280;39571;48.612;8.088;2023-05-02T09:11:31;100424.00;;;19.40;100.00
53671;BME280;39571;48.612;8.088;2023-05-02T09:13:56;100435.44;;;19.19;100.00
53671;BME280;39571;48.612;8.088;2023-05-02T09:16:24;100432.91;;;19.16;100.00
53671;BME280;39571;48.612;8.088;2023-05-02T09:18:55;100431.16;;;19.15;100.00
53671;BME280;39571;48.612;8.088;2023-05-02T09:21:34;100436.00;;;18.81;100.00
53671;BME280;39571;48.612;8.088;2023-05-02T09:24:01;100437.25;;;18.71;100.00
53671;BME280;39571;48.612;8.088;2023-05-02T09:26:29;100442.69;;;18.91;100.00
53671;BME280;39571;48.612;8.088;2023-05-02T09:29:00;100441.06;;;19.10;100.00
53671;BME280;39571;48.612;8.088;2023-05-02T09:31:27;100440.56;;;19.00;100.00
53671;BME280;39571;48.612;8.088;2023-05-02T09:33:55;100447.31;;;19.09;100.00
53671;BME280;39571;48.612;8.088;2023-05-02T09:36:21;100449.72;;;18.92;100.00
53671;BME280;39571;48.612;8.088;2023-05-02T09:38:48;100440.84;;;18.93;100.00
53671;BME280;39571;48.612;8.088;2023-05-02T09:41:14;100452.38;;;18.92;100.00
53671;BME280;39571;48.612;8.088;2023-05-02T09:43:42;100446.59;;;18.81;100.00
53671;BME280;39571;48.612;8.088;2023-05-02T09:46:08;100449.91;;;19.10;100.00
53671;BME280;39571;48.612;8.088;2023-05-02T09:51:18;100445.03;;;19.23;100.00
53671;BME280;39571;48.612;8.088;2023-05-02T09:53:44;100449.63;;;18.95;100.00
53671;BME280;39571;48.612;8.088;2023-05-02T09:56:10;100455.59;;;18.77;100.00
53671;BME280;39571;48.612;8.088;2023-05-02T09:58:35;100462.28;;;18.87;100.00
53671;BME280;39571;48.612;8.088;2023-05-02T10:01:01;100450.25;;;19.01;100.00
53671;BME280;39571;48.612;8.088;2023-05-02T10:03:27;100447.88;;;19.17;100.00
53671;BME280;39571;48.612;8.088;2023-05-02T10:05:53;100445.03;;;19.23;100.00
53671;BME280;39571;48.612;8.088;2023-05-02T10:08:20;100454.47;;;19.07;100.00
53671;BME280;39571;48.612;8.088;2023-05-02T10:10:51;100460.47;;;18.89;100.00
53671;BME280;39571;48.612;8.088;2023-05-02T10:13:19;100454.97;;;18.93;100.00
53671;BME280;39571;48.612;8.088;2023-05-02T10:15:48;100449.63;;;19.18;100.00
53671;BME280;39571;48.612;8.088;2023-05-02T10:18:25;100446.72;;;19.24;100.00
53671;BME280;39571;48.612;8.088;2023-05-02T10:20:58;100443.28;;;19.22;100.00
53671;BME280;39571;48.612;8.088;2023-05-02T10:23:28;100445.19;;;18.95;100.00
53671;BME280;39571;48.612;8.088;2023-05-02T10:25:54;100451.34;;;18.96;100.00
53671;BME280;39571;48.612;8.088;2023-05-02T10:28:19;100439.59;;;19.03;100.00
53671;BME280;39571;48.612;8.088;2023-05-02T10:30:45;100447.22;;;19.12;100.00
53671;BME280;39571;48.612;8.088;2023-05-02T10:33:15;100446.19;;;19.16;100.00
53671;BME280;39571;48.612;8.088;2023-05-02T10:35:43;100433.81;;;19.38;100.00
53671;BME280;39571;48.612;8.088;2023-05-02T10:38:11;100431.75;;;19.46;100.00
53671;BME280;39571;48.612;8.088;2023-05-02T10:40:38;100429.72;;;19.53;100.00
53671;BME280;39571;48.612;8.088;2023-05-02T10:43:04;100429.31;;;19.40;100.00
53671;BME280;39571;48.612;8.088;2023-05-02T10:45:36;100432.09;;;19.37;100.00
53671;BME280;39571;48.612;8.088;2023-05-02T10:48:22;100428.97;;;19.26;100.00
53671;BME280;39571;48.612;8.088;2023-05-02T10:50:53;100424.38;;;19.54;100.00
53671;BME280;39571;48.612;8.088;2023-05-02T10:53:23;100429.56;;;19.57;100.00
53671;BME280;39571;48.612;8.088;2023-05-02T10:56:24;100431.78;;;19.68;100.00
53671;BME280;39571;48.612;8.088;2023-05-02T10:59:25;100427.00;;;19.31;100.00
53671;BME280;39571;48.612;8.088;2023-05-02T11:01:51;100426.38;;;19.25;100.00
53671;BME280;39571;48.612;8.088;2023-05-02T11:04:16;100428.63;;;19.35;100.00
53671;BME280;39571;48.612;8.088;2023-05-02T11:11:56;100428.69;;;19.10;100.00
53671;BME280;39571;48.612;8.088;2023-05-02T11:24:51;100413.25;;;19.66;100.00
53671;BME280;39571;48.612;8.088;2023-05-02T11:30:02;100416.53;;;19.73;100.00
53671;BME280;39571;48.612;8.088;2023-05-02T11:35:27;100418.31;;;19.73;100.00
53671;BME280;39571;48.612;8.088;2023-05-02T11:37:57;100410.22;;;19.76;100.00
53671;BME280;39571;48.612;8.088;2023-05-02T11:40:23;100409.53;;;19.71;100.00
53671;BME280;39571;48.612;8.088;2023-05-02T11:42:49;100411.88;;;19.56;98.23
53671;BME280;39571;48.612;8.088;2023-05-02T11:45:14;100407.06;;;19.66;100.00
53671;BME280;39571;48.612;8.088;2023-05-02T11:47:41;100408.19;;;19.60;100.00
53671;BME280;39571;48.612;8.088;2023-05-02T11:50:07;100408.44;;;19.54;100.00
53671;BME280;39571;48.612;8.088;2023-05-02T11:52:37;100394.28;;;19.54;97.31
53671;BME280;39571;48.612;8.088;2023-05-02T11:55:07;100408.22;;;19.59;91.23
53671;BME280;39571;48.612;8.088;2023-05-02T11:57:35;100409.88;;;19.40;90.15
53671;BME280;39571;48.612;8.088;2023-05-02T12:00:01;100410.66;;;19.20;95.69
53671;BME280;39571;48.612;8.088;2023-05-02T12:02:43;100412.56;;;19.16;95.61
53671;BME280;39571;48.612;8.088;2023-05-02T12:05:10;100414.22;;;19.19;88.04
53671;BME280;39571;48.612;8.088;2023-05-02T12:07:45;100395.50;;;19.22;85.54
53671;BME280;39571;48.612;8.088;2023-05-02T12:10:13;100391.94;;;19.23;88.41
53671;BME280;39571;48.612;8.088;2023-05-02T12:12:41;100404.72;;;19.35;96.59
53671;BME280;39571;48.612;8.088;2023-05-02T12:15:08;100402.31;;;19.52;96.22
53671;BME280;39571;48.612;8.088;2023-05-02T12:17:44;100397.47;;;19.62;100.00
53671;BME280;39571;48.612;8.088;2023-05-02T12:20:10;100395.56;;;19.65;100.00
53671;BME280;39571;48.612;8.088;2023-05-02T12:22:36;100393.44;;;19.75;100.00
53671;BME280;39571;48.612;8.088;2023-05-02T12:25:03;100402.13;;;19.79;98.63
53671;BME280;39571;48.612;8.088;2023-05-02T12:27:28;100395.88;;;19.80;95.84
53671;BME280;39571;48.612;8.088;2023-05-02T12:29:54;100391.19;;;19.86;98.28
